Time;durP1;ratioP1;P1;durP2;ratioP2;P2;SDS_P1;SDS_P2;PMS_P1;PMS_P2;Temp;Humidity;BMP_temperature;BMP_pressure;BME280_temperature;BME280_humidity;BME280_pressure;Samples;Min_cycle;Max_cycle;Signal;HPM_P1;HPM_P2
2021/05/28 00:01:49;;;;;;;;;10.00;6.00;;;;;;;;3533155;39;113870;-71
2021/05/28 00:04:15;;;;;;;;;6.75;6.75;;;;;;;;3538870;39;113656;-72
2021/05/28 00:06:42;;;;;;;;;7.00;5.75;;;;;;;;3541369;39;112064;-73
2021/05/28 00:09:08;;;;;;;;;5.00;5.00;;;;;;;;3539269;39;114628;-72
2021/05/28 00:11:34;;;;;;;;;6.50;5.75;;;;;;;;3538280;39;111932;-73
2021/05/28 00:14:00;;;;;;;;;6.00;5.00;;;;;;;;3540031;39;113179;-73
2021/05/28 00:16:26;;;;;;;;;6.00;5.00;;;;;;;;3537736;39;114006;-72
2021/05/28 00:18:52;;;;;;;;;7.00;6.00;;;;;;;;3539608;39;112078;-73
2021/05/28 00:21:18;;;;;;;;;6.50;6.00;;;;;;;;3538901;39;115036;-72
2021/05/28 00:23:45;;;;;;;;;8.00;5.75;;;;;;;;3537715;39;114084;-73
2021/05/28 00:26:11;;;;;;;;;7.00;6.25;;;;;;;;3538775;39;111881;-73
2021/05/28 00:28:37;;;;;;;;;6.00;6.00;;;;;;;;3538004;39;112446;-72
2021/05/28 00:31:03;;;;;;;;;8.50;4.25;;;;;;;;3538246;39;111773;-73
2021/05/28 00:33:29;;;;;;;;;6.00;6.00;;;;;;;;3539864;39;113162;-73
2021/05/28 00:35:55;;;;;;;;;8.00;6.00;;;;;;;;3537852;39;113899;-73
2021/05/28 00:38:22;;;;;;;;;5.00;5.00;;;;;;;;3539218;39;111841;-72
2021/05/28 00:40:49;;;;;;;;;5.75;5.00;;;;;;;;3538846;39;113712;-72
2021/05/28 00:43:15;;;;;;;;;7.00;6.00;;;;;;;;3538260;39;113880;-72
2021/05/28 00:45:41;;;;;;;;;5.00;5.00;;;;;;;;3538995;39;112189;-72
2021/05/28 00:48:07;;;;;;;;;9.50;6.25;;;;;;;;3539504;39;113257;-72
2021/05/28 00:50:33;;;;;;;;;6.75;6.00;;;;;;;;3540448;39;113825;-73
2021/05/28 00:53:00;;;;;;;;;10.00;5.00;;;;;;;;3540179;39;113307;-72
2021/05/28 00:55:26;;;;;;;;;4.75;3.00;;;;;;;;3537598;39;114004;-73
2021/05/28 00:57:54;;;;;;;;;7.75;5.00;;;;;;;;3539555;39;112049;-74
2021/05/28 01:00:21;;;;;;;;;4.75;4.00;;;;;;;;3538685;39;113206;-76
2021/05/28 01:02:47;;;;;;;;;5.50;5.00;;;;;;;;3539169;39;113986;-73
2021/05/28 01:05:14;;;;;;;;;5.50;5.00;;;;;;;;3539904;39;113010;-79
2021/05/28 01:07:40;;;;;;;;;7.50;5.00;;;;;;;;3532966;39;112351;-75
2021/05/28 01:10:06;;;;;;;;;6.00;6.00;;;;;;;;3538614;39;114166;-76
2021/05/28 01:12:32;;;;;;;;;8.75;6.25;;;;;;;;3540439;39;112800;-75
2021/05/28 01:15:00;;;;;;;;;6.75;5.75;;;;;;;;3533687;39;113843;-75
2021/05/28 01:17:27;;;;;;;;;6.75;6.75;;;;;;;;3534756;39;112019;-74
2021/05/28 01:19:53;;;;;;;;;9.50;5.75;;;;;;;;3532618;39;114391;-74
2021/05/28 01:22:20;;;;;;;;;4.25;4.25;;;;;;;;3534523;39;113545;-74
2021/05/28 01:24:46;;;;;;;;;6.75;5.00;;;;;;;;3535775;39;112035;-74
2021/05/28 01:27:13;;;;;;;;;8.50;5.75;;;;;;;;3535817;39;113308;-75
2021/05/28 01:29:39;;;;;;;;;5.50;5.50;;;;;;;;3536655;39;114555;-74
2021/05/28 01:32:05;;;;;;;;;5.25;3.25;;;;;;;;3537761;39;111908;-75
2021/05/28 01:34:32;;;;;;;;;6.00;4.75;;;;;;;;3534786;39;114837;-75
2021/05/28 01:36:58;;;;;;;;;4.50;4.00;;;;;;;;3533409;39;111884;-75
2021/05/28 01:39:25;;;;;;;;;9.50;6.75;;;;;;;;3536385;39;113628;-75
2021/05/28 01:41:51;;;;;;;;;8.25;4.50;;;;;;;;3535370;39;113933;-75
2021/05/28 01:44:17;;;;;;;;;5.00;5.00;;;;;;;;3535549;39;112591;-76
2021/05/28 01:46:44;;;;;;;;;6.75;6.50;;;;;;;;3538482;39;113522;-75
2021/05/28 01:49:10;;;;;;;;;5.25;5.25;;;;;;;;3538239;39;113848;-75
2021/05/28 01:51:36;;;;;;;;;5.25;5.00;;;;;;;;3537557;39;111908;-74
2021/05/28 01:54:02;;;;;;;;;6.25;5.25;;;;;;;;3540880;39;113858;-74
2021/05/28 01:56:29;;;;;;;;;11.75;6.00;;;;;;;;3537875;39;111894;-74
2021/05/28 01:58:56;;;;;;;;;3.25;3.25;;;;;;;;3537587;39;113181;-74
2021/05/28 02:01:22;;;;;;;;;5.00;4.00;;;;;;;;3533561;39;113816;-75
2021/05/28 02:03:48;;;;;;;;;6.50;5.00;;;;;;;;3539551;39;112705;-75
2021/05/28 02:06:14;;;;;;;;;4.00;3.75;;;;;;;;3539908;39;113286;-75
2021/05/28 02:08:40;;;;;;;;;5.75;5.00;;;;;;;;3539075;39;114197;-76
2021/05/28 02:11:06;;;;;;;;;8.75;5.75;;;;;;;;3539349;39;111753;-75
2021/05/28 02:13:33;;;;;;;;;8.00;6.00;;;;;;;;3539369;39;113337;-75
2021/05/28 02:15:59;;;;;;;;;4.00;4.00;;;;;;;;3543373;39;114277;-75
2021/05/28 02:18:25;;;;;;;;;5.00;5.00;;;;;;;;3538992;39;113394;-75
2021/05/28 02:20:51;;;;;;;;;9.00;6.50;;;;;;;;3533963;39;113857;-75
2021/05/28 02:23:18;;;;;;;;;7.00;7.00;;;;;;;;3539625;39;112445;-77
2021/05/28 02:25:44;;;;;;;;;3.50;3.50;;;;;;;;3540309;39;113398;-77
2021/05/28 02:28:10;;;;;;;;;6.75;5.50;;;;;;;;3539820;39;114418;-76
2021/05/28 02:30:37;;;;;;;;;8.25;5.00;;;;;;;;3540697;39;112050;-76
2021/05/28 02:33:03;;;;;;;;;5.50;4.75;;;;;;;;3539758;39;113357;-77
2021/05/28 02:35:29;;;;;;;;;8.00;6.25;;;;;;;;3540821;39;113988;-76
2021/05/28 02:37:56;;;;;;;;;5.25;4.50;;;;;;;;3543939;39;112443;-76
2021/05/28 02:40:22;;;;;;;;;5.50;4.75;;;;;;;;3539203;39;114416;-76
2021/05/28 02:42:48;;;;;;;;;4.75;4.75;;;;;;;;3540511;39;112946;-77
2021/05/28 02:45:14;;;;;;;;;6.25;4.00;;;;;;;;3541426;39;113362;-76
2021/05/28 02:47:41;;;;;;;;;6.50;5.50;;;;;;;;3539879;39;114523;-75
2021/05/28 02:50:08;;;;;;;;;8.00;8.00;;;;;;;;3539918;39;111949;-76
2021/05/28 02:52:34;;;;;;;;;6.00;5.00;;;;;;;;3539004;39;114041;-75
2021/05/28 02:55:00;;;;;;;;;5.00;5.00;;;;;;;;3540069;39;113959;-76
2021/05/28 02:57:26;;;;;;;;;9.75;6.25;;;;;;;;3536623;39;111938;-76
2021/05/28 02:59:52;;;;;;;;;6.50;5.50;;;;;;;;3542671;39;113626;-76
2021/05/28 03:02:18;;;;;;;;;7.00;6.00;;;;;;;;3540279;39;112020;-76
2021/05/28 03:04:45;;;;;;;;;5.75;4.50;;;;;;;;3539562;39;114155;-76
2021/05/28 03:07:12;;;;;;;;;5.75;5.00;;;;;;;;3538838;39;114298;-76
2021/05/28 03:09:38;;;;;;;;;6.25;4.25;;;;;;;;3539891;39;112463;-74
2021/05/28 03:12:04;;;;;;;;;7.25;4.00;;;;;;;;3538603;39;113728;-75
2021/05/28 03:14:30;;;;;;;;;4.75;4.75;;;;;;;;3539624;39;113621;-75
2021/05/28 03:16:56;;;;;;;;;4.75;4.75;;;;;;;;3536521;39;112077;-75
2021/05/28 03:19:26;;;;;;;;;5.00;5.00;;;;;;;;3540058;39;113707;-75
2021/05/28 03:24:37;;;;;;;;;8.00;6.25;;;;;;;;3537632;39;112052;-75
2021/05/28 03:27:03;;;;;;;;;5.00;3.00;;;;;;;;3539485;39;113881;-75
2021/05/28 03:29:29;;;;;;;;;5.75;4.00;;;;;;;;3538396;39;111774;-75
2021/05/28 03:31:56;;;;;;;;;6.75;6.75;;;;;;;;3536363;39;113349;-75
2021/05/28 03:34:22;;;;;;;;;5.75;5.00;;;;;;;;3539452;39;113817;-75
2021/05/28 03:36:48;;;;;;;;;8.50;5.50;;;;;;;;3538856;39;112267;-75
2021/05/28 03:39:15;;;;;;;;;7.00;7.00;;;;;;;;3539138;39;113260;-74
2021/05/28 03:41:41;;;;;;;;;8.25;5.00;;;;;;;;3541478;39;114187;-75
2021/05/28 03:44:07;;;;;;;;;6.25;5.00;;;;;;;;3538980;39;113516;-76
2021/05/28 03:46:33;;;;;;;;;7.00;4.50;;;;;;;;3539154;39;113757;-75
2021/05/28 03:49:00;;;;;;;;;7.50;5.00;;;;;;;;3538357;39;112271;-75
2021/05/28 03:51:26;;;;;;;;;9.75;6.75;;;;;;;;3535271;39;113714;-76
2021/05/28 03:53:52;;;;;;;;;6.00;5.00;;;;;;;;3538107;39;113886;-76
2021/05/28 03:56:19;;;;;;;;;7.50;7.50;;;;;;;;3539448;39;111970;-75
2021/05/28 03:58:45;;;;;;;;;5.00;5.00;;;;;;;;3538979;39;112905;-76
2021/05/28 04:01:11;;;;;;;;;6.25;6.25;;;;;;;;3538735;39;113784;-74
2021/05/28 04:03:37;;;;;;;;;3.75;3.75;;;;;;;;3542189;39;111897;-75
2021/05/28 04:06:04;;;;;;;;;9.50;5.50;;;;;;;;3538400;39;114058;-75
2021/05/28 04:08:30;;;;;;;;;7.25;7.25;;;;;;;;3534058;39;112188;-75
2021/05/28 04:10:56;;;;;;;;;6.00;5.00;;;;;;;;3540117;39;113177;-74
2021/05/28 04:13:28;;;;;;;;;5.00;5.00;;;;;;;;3537781;39;113898;-76
2021/05/28 04:15:54;;;;;;;;;5.00;5.00;;;;;;;;3536195;39;112175;-75
2021/05/28 04:18:20;;;;;;;;;7.50;6.50;;;;;;;;3539398;39;113859;-74
2021/05/28 04:20:46;;;;;;;;;7.00;7.00;;;;;;;;3538047;39;113991;-76
2021/05/28 04:23:12;;;;;;;;;6.50;4.75;;;;;;;;3538816;39;111845;-73
2021/05/28 04:25:38;;;;;;;;;8.00;6.50;;;;;;;;3539529;39;113386;-73
2021/05/28 04:28:05;;;;;;;;;9.00;6.25;;;;;;;;3538282;39;112007;-73
2021/05/28 04:30:32;;;;;;;;;6.75;4.50;;;;;;;;3539915;39;113130;-72
2021/05/28 04:32:58;;;;;;;;;6.75;5.50;;;;;;;;3537727;39;113936;-73
2021/05/28 04:35:24;;;;;;;;;5.00;5.00;;;;;;;;3539534;39;112066;-73
2021/05/28 04:37:50;;;;;;;;;5.00;5.00;;;;;;;;3538484;39;113554;-73
2021/05/28 04:40:18;;;;;;;;;9.00;7.25;;;;;;;;3538645;39;113876;-73
2021/05/28 04:42:44;;;;;;;;;9.00;8.00;;;;;;;;3532720;39;112254;-73
2021/05/28 04:45:10;;;;;;;;;8.00;6.00;;;;;;;;3538811;39;113222;-72
2021/05/28 04:47:37;;;;;;;;;9.00;7.50;;;;;;;;3541444;39;114268;-73
2021/05/28 04:50:03;;;;;;;;;8.25;7.00;;;;;;;;3536220;39;113260;-73
2021/05/28 04:52:29;;;;;;;;;9.50;7.00;;;;;;;;3539177;39;113629;-73
2021/05/28 04:54:56;;;;;;;;;8.25;7.75;;;;;;;;3537877;39;111795;-72
2021/05/28 04:57:22;;;;;;;;;9.75;8.50;;;;;;;;3539669;39;113477;-73
2021/05/28 04:59:48;;;;;;;;;8.75;7.00;;;;;;;;3537937;39;113900;-74
2021/05/28 05:02:14;;;;;;;;;5.75;5.25;;;;;;;;3538721;39;112008;-72
2021/05/28 05:04:41;;;;;;;;;7.00;6.50;;;;;;;;3538884;39;113571;-71
2021/05/28 05:07:07;;;;;;;;;9.75;7.25;;;;;;;;3537898;39;113953;-72
2021/05/28 05:09:33;;;;;;;;;8.00;6.00;;;;;;;;3541887;39;112254;-73
2021/05/28 05:11:59;;;;;;;;;5.00;3.00;;;;;;;;3537744;39;113803;-73
2021/05/28 05:14:25;;;;;;;;;7.75;7.75;;;;;;;;3539311;39;112013;-75
2021/05/28 05:16:51;;;;;;;;;6.75;6.75;;;;;;;;3538217;39;113292;-72
2021/05/28 05:19:18;;;;;;;;;8.00;5.00;;;;;;;;3538242;39;113944;-73
2021/05/28 05:21:45;;;;;;;;;8.00;8.00;;;;;;;;3538553;39;111951;-73
2021/05/28 05:24:11;;;;;;;;;8.50;5.00;;;;;;;;3538373;39;113183;-73
2021/05/28 05:26:38;;;;;;;;;8.25;8.00;;;;;;;;3538491;39;114147;-75
2021/05/28 05:29:04;;;;;;;;;9.00;8.00;;;;;;;;3538016;39;112017;-75
2021/05/28 05:31:30;;;;;;;;;8.00;8.00;;;;;;;;3541544;39;113373;-76
2021/05/28 05:33:56;;;;;;;;;9.00;9.00;;;;;;;;3535720;39;111783;-74
2021/05/28 05:36:23;;;;;;;;;10.50;8.00;;;;;;;;3539462;39;114211;-75
2021/05/28 05:38:50;;;;;;;;;9.25;8.00;;;;;;;;3538776;39;113917;-73
2021/05/28 05:41:16;;;;;;;;;7.75;7.00;;;;;;;;3540216;39;112237;-74
2021/05/28 05:43:43;;;;;;;;;16.00;11.25;;;;;;;;3539958;39;113089;-79
2021/05/28 05:46:09;;;;;;;;;13.50;10.00;;;;;;;;3540142;39;113899;-77
2021/05/28 05:48:35;;;;;;;;;10.50;9.00;;;;;;;;3540618;39;111937;-76
2021/05/28 05:51:01;;;;;;;;;11.50;8.75;;;;;;;;3541211;39;113030;-77
2021/05/28 05:53:27;;;;;;;;;8.00;7.75;;;;;;;;3537057;39;112203;-78
2021/05/28 05:55:54;;;;;;;;;1.50;1.00;;;;;;;;3539884;39;113676;-79
2021/05/28 05:58:20;;;;;;;;;9.25;8.00;;;;;;;;3536977;39;114101;-86
2021/05/28 06:00:46;;;;;;;;;3.75;2.00;;;;;;;;3540461;39;111878;-86
2021/05/28 06:03:12;;;;;;;;;9.00;9.00;;;;;;;;3539717;39;113340;-79
2021/05/28 06:05:39;;;;;;;;;6.00;6.00;;;;;;;;3535147;39;114081;-79
2021/05/28 06:08:05;;;;;;;;;8.50;7.50;;;;;;;;3537908;39;111900;-81
2021/05/28 06:10:31;;;;;;;;;9.00;9.00;;;;;;;;3538837;39;113428;-81
2021/05/28 06:13:02;;;;;;;;;9.00;8.00;;;;;;;;3541204;39;114239;-79
2021/05/28 06:15:28;;;;;;;;;12.50;7.50;;;;;;;;3534455;39;114925;-78
2021/05/28 06:17:54;;;;;;;;;8.50;8.25;;;;;;;;3539684;39;114068;-80
2021/05/28 06:20:21;;;;;;;;;9.00;8.00;;;;;;;;3537953;39;112794;-79
2021/05/28 06:22:48;;;;;;;;;11.00;10.00;;;;;;;;3538900;39;113240;-79
2021/05/28 06:25:14;;;;;;;;;14.00;12.00;;;;;;;;3539462;39;114032;-80
2021/05/28 06:27:40;;;;;;;;;11.00;10.25;;;;;;;;3539538;39;112699;-80
2021/05/28 06:30:08;;;;;;;;;10.00;8.00;;;;;;;;3538713;39;112847;-79
2021/05/28 06:32:34;;;;;;;;;9.00;7.00;;;;;;;;3539440;39;114249;-79
2021/05/28 06:35:00;;;;;;;;;6.50;6.50;;;;;;;;3541335;39;111876;-79
2021/05/28 06:37:27;;;;;;;;;6.50;6.50;;;;;;;;3539614;39;114753;-77
2021/05/28 06:40:18;;;;;;;;;9.75;9.75;;;;;;;;3478834;39;4129079;-72
2021/05/28 06:42:44;;;;;;;;;9.00;5.50;;;;;;;;3576597;39;113833;-73
2021/05/28 06:45:10;;;;;;;;;7.00;7.00;;;;;;;;3575899;39;112181;-75
2021/05/28 06:47:36;;;;;;;;;7.50;6.00;;;;;;;;3575984;39;113768;-73
2021/05/28 06:50:03;;;;;;;;;7.00;5.00;;;;;;;;3577207;39;113871;-74
2021/05/28 06:52:29;;;;;;;;;11.00;9.00;;;;;;;;3575982;39;111784;-74
2021/05/28 06:54:56;;;;;;;;;10.50;7.00;;;;;;;;3577409;39;113716;-74
2021/05/28 06:57:24;;;;;;;;;12.75;8.25;;;;;;;;3576024;39;113743;-74
2021/05/28 06:59:50;;;;;;;;;6.75;6.75;;;;;;;;3579614;39;112174;-74
2021/05/28 07:02:19;;;;;;;;;8.75;6.50;;;;;;;;3576725;39;114359;-76
2021/05/28 07:04:45;;;;;;;;;9.50;7.75;;;;;;;;3498369;39;280310;-74
2021/05/28 07:07:11;;;;;;;;;8.00;8.00;;;;;;;;3540280;39;113306;-78
2021/05/28 07:09:37;;;;;;;;;12.00;9.00;;;;;;;;3539925;39;114373;-76
2021/05/28 07:12:04;;;;;;;;;11.25;6.25;;;;;;;;3541377;39;111806;-75
2021/05/28 07:14:31;;;;;;;;;8.00;7.75;;;;;;;;3539210;39;113511;-77
2021/05/28 07:16:57;;;;;;;;;12.00;8.00;;;;;;;;3540634;39;113826;-75
2021/05/28 07:19:23;;;;;;;;;7.00;7.00;;;;;;;;3540910;39;112837;-73
2021/05/28 07:21:52;;;;;;;;;8.75;6.25;;;;;;;;3539350;39;113199;-76
2021/05/28 07:24:18;;;;;;;;;6.50;6.50;;;;;;;;3540964;39;112586;-75
2021/05/28 07:26:44;;;;;;;;;11.00;6.00;;;;;;;;3540976;39;113309;-78
2021/05/28 07:29:10;;;;;;;;;8.00;8.00;;;;;;;;3541116;39;113842;-78
2021/05/28 07:31:37;;;;;;;;;7.75;7.75;;;;;;;;3541092;39;112088;-77
2021/05/28 07:34:04;;;;;;;;;6.50;6.50;;;;;;;;3541284;39;113418;-75
2021/05/28 07:36:30;;;;;;;;;9.75;7.50;;;;;;;;3540534;39;113893;-78
2021/05/28 07:38:56;;;;;;;;;8.00;6.00;;;;;;;;3545957;39;112859;-75
2021/05/28 07:41:22;;;;;;;;;8.75;7.00;;;;;;;;3551921;39;113488;-78
2021/05/28 07:43:48;;;;;;;;;9.25;6.00;;;;;;;;3553221;39;114086;-74
2021/05/28 07:46:14;;;;;;;;;9.75;6.00;;;;;;;;3551461;39;114166;-78
2021/05/28 07:48:41;;;;;;;;;7.50;6.00;;;;;;;;3551660;39;114091;-79
2021/05/28 07:51:07;;;;;;;;;7.50;6.50;;;;;;;;3549258;39;113116;-77
2021/05/28 07:53:33;;;;;;;;;9.25;7.50;;;;;;;;3542858;39;113607;-84
2021/05/28 07:56:00;;;;;;;;;9.00;7.75;;;;;;;;3543038;39;114273;-75
2021/05/28 07:58:26;;;;;;;;;10.00;7.00;;;;;;;;3544370;39;111881;-75
2021/05/28 08:00:52;;;;;;;;;6.33;6.33;;;;;;;;3544424;39;113196;-77
2021/05/28 08:03:18;;;;;;;;;8.33;7.33;;;;;;;;3543751;39;114447;-82
2021/05/28 08:05:49;;;;;;;;;9.00;7.67;;;;;;;;3511942;39;173211;-75
2021/05/28 08:08:15;;;;;;;;;9.00;7.00;;;;;;;;3539162;39;114566;-84
2021/05/28 08:10:41;;;;;;;;;6.00;5.33;;;;;;;;3555943;39;111960;-74
2021/05/28 08:13:07;;;;;;;;;3.00;3.00;;;;;;;;3551918;39;114235;-72
2021/05/28 08:15:33;;;;;;;;;4.67;3.33;;;;;;;;3550909;39;113985;-72
2021/05/28 08:18:00;;;;;;;;;5.00;4.00;;;;;;;;3554399;39;112002;-74
2021/05/28 08:20:26;;;;;;;;;5.67;5.00;;;;;;;;3554077;39;113973;-76
2021/05/28 08:22:54;;;;;;;;;4.33;4.33;;;;;;;;3553517;39;114241;-76
2021/05/28 08:25:20;;;;;;;;;7.00;5.00;;;;;;;;3553886;39;111789;-74
2021/05/28 08:27:46;;;;;;;;;5.67;4.00;;;;;;;;3555959;39;113687;-74
2021/05/28 08:30:14;;;;;;;;;5.00;5.00;;;;;;;;3553162;39;112341;-75
2021/05/28 08:32:40;;;;;;;;;6.00;5.00;;;;;;;;3554370;39;113315;-74
2021/05/28 08:35:06;;;;;;;;;6.00;6.00;;;;;;;;3553674;39;113853;-75
2021/05/28 08:37:33;;;;;;;;;5.00;5.00;;;;;;;;3552311;39;112869;-75
2021/05/28 08:40:00;;;;;;;;;4.33;4.33;;;;;;;;3554104;39;113162;-75
2021/05/28 08:42:28;;;;;;;;;7.00;5.33;;;;;;;;3553756;39;114039;-75
2021/05/28 08:44:54;;;;;;;;;5.00;5.00;;;;;;;;3554294;39;112023;-75
2021/05/28 08:47:21;;;;;;;;;6.33;6.00;;;;;;;;3554141;39;113347;-75
2021/05/28 08:49:47;;;;;;;;;5.00;5.00;;;;;;;;3556307;39;112675;-75
2021/05/28 08:52:14;;;;;;;;;5.00;5.00;;;;;;;;3554068;39;113458;-75
2021/05/28 08:54:40;;;;;;;;;5.33;5.33;;;;;;;;3553397;39;114291;-74
2021/05/28 08:57:07;;;;;;;;;5.33;4.33;;;;;;;;3554126;39;111974;-75
2021/05/28 08:59:33;;;;;;;;;6.00;6.00;;;;;;;;3554290;39;113191;-74
2021/05/28 09:01:59;;;;;;;;;6.33;6.33;;;;;;;;3553111;39;114031;-78
2021/05/28 09:04:25;;;;;;;;;6.00;5.00;;;;;;;;3554252;39;111906;-82
2021/05/28 09:08:08;;;;;;;;;6.33;6.00;;;;;;;;3593100;39;112425;-80
2021/05/28 09:10:35;;;;;;;;;6.67;5.00;;;;;;;;3522732;39;2313296;-80
2021/05/28 09:13:13;;;;;;;;;6.00;6.00;;;;;;;;3578330;39;112286;-80
2021/05/28 09:15:39;;;;;;;;;9.00;8.00;;;;;;;;3577278;39;113280;-79
2021/05/28 09:18:06;;;;;;;;;5.00;5.00;;;;;;;;3578548;39;113923;-79
2021/05/28 09:20:32;;;;;;;;;6.67;5.33;;;;;;;;3577518;39;112225;-79
2021/05/28 09:23:10;;;;;;;;;5.00;5.00;;;;;;;;3579891;39;113375;-79
2021/05/28 09:25:54;;;;;;;;;5.00;3.00;;;;;;;;3579234;39;114186;-79
2021/05/28 09:28:21;;;;;;;;;6.67;5.00;;;;;;;;3583900;39;111877;-79
2021/05/28 09:30:53;;;;;;;;;4.00;3.00;;;;;;;;3581686;39;114252;-77
2021/05/28 09:33:19;;;;;;;;;5.00;5.00;;;;;;;;3581834;39;111760;-77
2021/05/28 09:35:45;;;;;;;;;7.33;5.33;;;;;;;;3582170;39;113250;-79
2021/05/28 09:38:19;;;;;;;;;9.00;7.00;;;;;;;;3580674;39;114055;-79
2021/05/28 09:40:46;;;;;;;;;6.00;5.67;;;;;;;;3581818;39;112058;-79
2021/05/28 09:43:14;;;;;;;;;4.00;4.00;;;;;;;;3581987;39;113522;-77
2021/05/28 09:45:41;;;;;;;;;4.00;4.00;;;;;;;;3581622;39;114224;-78
2021/05/28 09:48:21;;;;;;;;;4.33;3.67;;;;;;;;3582011;39;112040;-77
2021/05/28 09:50:48;;;;;;;;;5.33;5.33;;;;;;;;3584713;39;113249;-76
2021/05/28 09:53:26;;;;;;;;;6.00;5.00;;;;;;;;3581561;39;111808;-77
2021/05/28 09:55:53;;;;;;;;;3.00;3.00;;;;;;;;3582022;39;114013;-76
2021/05/28 09:58:19;;;;;;;;;5.00;2.00;;;;;;;;3581145;39;113888;-77
2021/05/28 10:00:45;;;;;;;;;6.00;4.00;;;;;;;;3581681;39;111904;-76
2021/05/28 10:03:13;;;;;;;;;6.00;6.00;;;;;;;;3581517;39;113223;-77
2021/05/28 10:05:40;;;;;;;;;8.33;6.00;;;;;;;;3581223;39;114014;-76
2021/05/28 10:08:07;;;;;;;;;7.67;6.00;;;;;;;;3581684;39;112009;-84
2021/05/28 10:10:35;;;;;;;;;6.00;5.00;;;;;;;;3582650;39;113684;-75
2021/05/28 10:13:09;;;;;;;;;3.33;3.33;;;;;;;;3582773;39;114271;-78
2021/05/28 10:15:35;;;;;;;;;6.33;5.00;;;;;;;;3581259;39;113443;-78
2021/05/28 10:18:02;;;;;;;;;5.00;4.67;;;;;;;;3577813;39;114172;-79
2021/05/28 10:20:28;;;;;;;;;6.00;6.00;;;;;;;;3576257;39;112039;-76
2021/05/28 10:22:54;;;;;;;;;5.33;5.33;;;;;;;;3576383;39;113694;-78
2021/05/28 10:25:20;;;;;;;;;7.67;7.67;;;;;;;;3575506;39;113821;-78
2021/05/28 10:27:52;;;;;;;;;3.33;3.00;;;;;;;;3575179;39;111798;-84
2021/05/28 10:30:20;;;;;;;;;7.00;4.67;;;;;;;;3575243;39;113443;-78
2021/05/28 10:33:13;;;;;;;;;5.33;5.00;;;;;;;;3575206;39;113869;-83
2021/05/28 10:35:44;;;;;;;;;5.33;5.33;;;;;;;;3576138;39;112263;-78
2021/05/28 10:38:25;;;;;;;;;6.67;5.67;;;;;;;;3574047;39;113792;-79
2021/05/28 10:40:51;;;;;;;;;6.33;5.33;;;;;;;;3572446;39;112637;-77
2021/05/28 10:43:20;;;;;;;;;8.00;8.00;;;;;;;;3573031;39;113194;-78
2021/05/28 10:45:57;;;;;;;;;6.33;6.33;;;;;;;;3571575;39;113923;-76
2021/05/28 10:48:50;;;;;;;;;5.00;4.00;;;;;;;;3574032;39;112227;-77
2021/05/28 10:51:17;;;;;;;;;6.00;6.00;;;;;;;;3549202;39;113292;-76
2021/05/28 10:54:04;;;;;;;;;6.33;6.33;;;;;;;;3573563;39;114276;-78
2021/05/28 10:56:44;;;;;;;;;4.33;4.33;;;;;;;;3572363;39;112244;-77
2021/05/28 10:59:12;;;;;;;;;6.00;6.00;;;;;;;;3575457;39;113552;-75
2021/05/28 11:01:45;;;;;;;;;5.00;5.00;;;;;;;;3564233;39;112424;-76
2021/05/28 11:04:12;;;;;;;;;6.67;5.33;;;;;;;;3572569;39;113502;-76
2021/05/28 11:06:52;;;;;;;;;6.67;6.33;;;;;;;;3573354;39;114027;-77
2021/05/28 11:09:18;;;;;;;;;6.33;6.33;;;;;;;;3572531;39;112208;-77
2021/05/28 11:11:47;;;;;;;;;6.00;6.00;;;;;;;;3573927;39;114197;-75
2021/05/28 11:14:17;;;;;;;;;8.00;6.00;;;;;;;;3572771;39;114052;-75
2021/05/28 11:17:02;;;;;;;;;7.33;6.00;;;;;;;;3574212;39;112310;-76
2021/05/28 11:19:30;;;;;;;;;6.67;6.67;;;;;;;;3574134;39;113433;-77
2021/05/28 11:21:56;;;;;;;;;8.67;7.00;;;;;;;;3576173;39;112679;-76
2021/05/28 11:24:40;;;;;;;;;5.00;5.00;;;;;;;;3574346;39;113259;-76
2021/05/28 11:27:10;;;;;;;;;7.33;7.33;;;;;;;;3571049;39;113415;-77
2021/05/28 11:29:37;;;;;;;;;6.00;6.00;;;;;;;;3572832;39;112711;-76
2021/05/28 11:32:28;;;;;;;;;7.33;7.33;;;;;;;;3574740;39;113209;-76
2021/05/28 11:35:08;;;;;;;;;6.67;6.67;;;;;;;;3573853;39;114397;-76
2021/05/28 11:37:38;;;;;;;;;9.00;7.67;;;;;;;;3572870;39;111803;-76
2021/05/28 11:40:10;;;;;;;;;9.00;6.33;;;;;;;;3573066;39;113708;-77
2021/05/28 11:42:36;;;;;;;;;8.67;7.67;;;;;;;;3575097;39;114293;-77
2021/05/28 11:45:04;;;;;;;;;9.75;7.25;;;;;;;;3574783;39;112460;-77
2021/05/28 11:47:33;;;;;;;;;5.33;5.33;;;;;;;;3572188;39;113909;-77
2021/05/28 11:50:00;;;;;;;;;6.00;6.00;;;;;;;;3572520;39;112002;-75
2021/05/28 11:52:26;;;;;;;;;8.67;7.00;;;;;;;;3572783;39;113829;-76
2021/05/28 11:55:03;;;;;;;;;8.00;7.33;;;;;;;;3573923;39;113878;-78
2021/05/28 11:57:30;;;;;;;;;6.33;6.33;;;;;;;;3570769;39;112078;-74
2021/05/28 11:59:57;;;;;;;;;4.67;4.67;;;;;;;;3574464;39;113180;-76
2021/05/28 12:02:45;;;;;;;;;10.67;8.00;;;;;;;;3573751;39;114202;-75
2021/05/28 12:05:38;;;;;;;;;7.00;5.00;;;;;;;;3575743;39;111997;-74
2021/05/28 12:08:24;;;;;;;;;7.33;7.00;;;;;;;;3547416;39;114267;-75
2021/05/28 12:10:51;;;;;;;;;9.00;9.00;;;;;;;;3573602;39;112081;-76
2021/05/28 12:13:18;;;;;;;;;3.33;3.33;;;;;;;;3574388;39;113486;-78
2021/05/28 12:15:45;;;;;;;;;7.33;5.00;;;;;;;;3574028;39;113883;-75
2021/05/28 12:18:23;;;;;;;;;7.33;6.67;;;;;;;;3573440;39;113362;-71
2021/05/28 12:20:50;;;;;;;;;6.00;6.00;;;;;;;;3572602;39;113467;-73
2021/05/28 12:23:17;;;;;;;;;7.67;6.67;;;;;;;;3572694;39;113919;-74
2021/05/28 12:25:45;;;;;;;;;11.25;9.50;;;;;;;;3573160;39;112254;-77
2021/05/28 12:28:12;;;;;;;;;8.67;6.67;;;;;;;;3576511;39;113253;-73
2021/05/28 12:30:39;;;;;;;;;11.75;11.50;;;;;;;;3574048;39;111948;-70
2021/05/28 12:33:06;;;;;;;;;11.50;11.00;;;;;;;;3574153;39;113298;-70
2021/05/28 12:35:33;;;;;;;;;12.00;10.25;;;;;;;;3574006;39;113901;-70
2021/05/28 12:38:01;;;;;;;;;9.00;9.00;;;;;;;;3568176;39;112134;-70
2021/05/28 12:40:27;;;;;;;;;11.25;11.00;;;;;;;;3571360;39;113728;-72
2021/05/28 12:42:54;;;;;;;;;11.75;11.75;;;;;;;;3569184;39;113846;-70
2021/05/28 12:45:21;;;;;;;;;11.00;10.25;;;;;;;;3573067;39;111978;-70
2021/05/28 12:47:47;;;;;;;;;11.00;10.00;;;;;;;;3572868;39;113353;-70
2021/05/28 12:50:24;;;;;;;;;8.25;7.00;;;;;;;;3576104;39;114394;-70
2021/05/28 12:52:54;;;;;;;;;8.50;8.50;;;;;;;;3572858;39;113051;-70
2021/05/28 12:55:27;;;;;;;;;11.25;10.25;;;;;;;;3573241;39;113989;-73
2021/05/28 12:57:53;;;;;;;;;13.00;11.00;;;;;;;;3573087;39;112379;-70
2021/05/28 13:00:30;;;;;;;;;8.50;7.50;;;;;;;;3573817;39;113366;-70
2021/05/28 13:02:56;;;;;;;;;11.75;10.75;;;;;;;;3572703;39;114000;-70
2021/05/28 13:05:30;;;;;;;;;11.00;10.25;;;;;;;;3573414;39;113254;-70
2021/05/28 13:07:57;;;;;;;;;10.00;10.00;;;;;;;;3572239;39;113226;-70
2021/05/28 13:10:24;;;;;;;;;12.75;12.75;;;;;;;;3573419;39;113899;-71
2021/05/28 13:12:51;;;;;;;;;12.00;11.00;;;;;;;;3575979;39;111952;-70
2021/05/28 13:15:20;;;;;;;;;10.00;10.00;;;;;;;;3573044;39;113898;-70
2021/05/28 13:17:52;;;;;;;;;12.00;12.00;;;;;;;;3573051;39;112251;-73
2021/05/28 13:20:18;;;;;;;;;10.00;10.00;;;;;;;;3572613;39;113280;-72
2021/05/28 13:22:45;;;;;;;;;12.00;10.75;;;;;;;;3572402;39;114146;-70
2021/05/28 13:25:16;;;;;;;;;13.75;11.50;;;;;;;;3566872;39;112089;-70
2021/05/28 13:27:43;;;;;;;;;11.50;9.25;;;;;;;;3573708;39;113216;-72
2021/05/28 13:30:10;;;;;;;;;7.25;7.25;;;;;;;;3573441;39;113933;-71
2021/05/28 13:32:37;;;;;;;;;12.00;10.50;;;;;;;;3576214;39;111791;-71
2021/05/28 13:35:04;;;;;;;;;10.00;10.00;;;;;;;;3571449;39;115323;-72
2021/05/28 13:37:30;;;;;;;;;10.00;9.00;;;;;;;;3573993;39;111951;-71
2021/05/28 13:39:56;;;;;;;;;11.00;10.25;;;;;;;;3573534;39;113310;-71
2021/05/28 13:42:25;;;;;;;;;9.75;9.00;;;;;;;;3573282;39;113972;-71
2021/05/28 13:44:51;;;;;;;;;10.25;10.25;;;;;;;;3571413;39;111783;-73
2021/05/28 13:47:18;;;;;;;;;8.00;8.00;;;;;;;;3573456;39;113270;-72
2021/05/28 13:49:44;;;;;;;;;10.50;9.00;;;;;;;;3570965;39;113446;-72
2021/05/28 13:52:11;;;;;;;;;11.75;9.50;;;;;;;;3573601;39;111941;-71
2021/05/28 13:54:37;;;;;;;;;7.50;7.50;;;;;;;;3576904;39;113416;-71
2021/05/28 13:57:04;;;;;;;;;10.00;7.50;;;;;;;;3569197;39;112183;-72
2021/05/28 13:59:32;;;;;;;;;6.00;6.00;;;;;;;;3571739;39;113223;-72
2021/05/28 14:01:58;;;;;;;;;9.25;8.25;;;;;;;;3573531;39;114521;-72
2021/05/28 14:04:24;;;;;;;;;10.25;9.25;;;;;;;;3571347;39;112184;-72
2021/05/28 14:06:50;;;;;;;;;9.25;9.00;;;;;;;;3574527;39;113185;-71
2021/05/28 14:09:16;;;;;;;;;10.50;9.75;;;;;;;;3573995;39;113931;-71
2021/05/28 14:11:42;;;;;;;;;8.25;8.25;;;;;;;;3572287;39;112132;-73
2021/05/28 14:14:08;;;;;;;;;11.00;8.00;;;;;;;;3574614;39;113603;-71
2021/05/28 14:16:35;;;;;;;;;12.50;9.75;;;;;;;;3576660;39;113933;-71
2021/05/28 14:19:01;;;;;;;;;9.25;9.25;;;;;;;;3574143;39;113392;-71
2021/05/28 14:21:27;;;;;;;;;8.00;6.50;;;;;;;;3572627;39;113898;-71
2021/05/28 14:23:53;;;;;;;;;11.00;10.00;;;;;;;;3573905;39;112058;-70
2021/05/28 14:26:20;;;;;;;;;9.75;9.75;;;;;;;;3573036;39;113736;-71
2021/05/28 14:28:46;;;;;;;;;9.00;9.00;;;;;;;;3573926;39;114065;-71
2021/05/28 14:31:13;;;;;;;;;10.25;10.25;;;;;;;;3572809;39;112194;-71
2021/05/28 14:33:50;;;;;;;;;11.25;10.00;;;;;;;;3574835;39;113361;-83